Time;durP1;ratioP1;P1;durP2;ratioP2;P2;SDS_P1;SDS_P2;PMS_P1;PMS_P2;Temp;Humidity;BMP_temperature;BMP_pressure;BME280_temperature;BME280_humidity;BME280_pressure;Samples;Min_cycle;Max_cycle;Signal;HPM_P1;HPM_P2
2021/04/29 00:02:06;;;;;;;1.03;0.60;;;17.80;99.90;;;;;;5119400;28;20225;-91
2021/04/29 00:04:38;;;;;;;0.70;0.50;;;17.80;99.90;;;;;;5118839;28;20216;-90
2021/04/29 00:07:08;;;;;;;3.10;0.80;;;17.80;99.90;;;;;;5118541;28;20202;-90
2021/04/29 00:09:39;;;;;;;1.17;0.63;;;17.80;99.90;;;;;;5100162;28;20222;-90
2021/04/29 00:12:10;;;;;;;1.20;0.70;;;17.90;99.90;;;;;;5118211;28;20202;-90
2021/04/29 00:14:41;;;;;;;1.07;0.70;;;17.90;99.90;;;;;;5118134;28;20206;-90
2021/04/29 00:17:15;;;;;;;2.10;0.60;;;18.00;99.90;;;;;;5117375;28;20214;-91
2021/04/29 00:19:45;;;;;;;0.60;0.40;;;18.10;99.90;;;;;;5118259;28;20206;-90
2021/04/29 00:22:15;;;;;;;0.90;0.47;;;18.00;99.90;;;;;;5118132;28;20222;-90
2021/04/29 00:24:46;;;;;;;1.37;0.50;;;17.90;99.90;;;;;;5118422;28;20575;-90
2021/04/29 00:27:17;;;;;;;0.70;0.50;;;18.00;99.90;;;;;;5118114;28;20202;-90
2021/04/29 00:29:48;;;;;;;1.43;0.87;;;18.10;99.90;;;;;;5100088;28;20283;-90
2021/04/29 00:32:20;;;;;;;1.30;0.60;;;18.30;99.90;;;;;;5117538;28;20206;-90
2021/04/29 00:34:51;;;;;;;0.83;0.63;;;18.30;99.90;;;;;;5117257;28;20202;-93
2021/04/29 00:37:22;;;;;;;0.73;0.50;;;18.40;99.90;;;;;;5119190;28;20326;-91
2021/04/29 00:39:52;;;;;;;1.87;0.70;;;18.50;99.90;;;;;;5097755;28;20203;-91
2021/04/29 00:42:23;;;;;;;0.83;0.50;;;18.40;99.90;;;;;;5080225;28;20240;-91
2021/04/29 00:44:53;;;;;;;2.17;0.80;;;18.50;99.90;;;;;;5097265;28;20203;-91
2021/04/29 00:47:26;;;;;;;1.13;0.77;;;18.50;99.90;;;;;;5098067;28;20309;-91
2021/04/29 00:49:57;;;;;;;1.90;0.63;;;18.40;99.90;;;;;;5097985;28;20714;-90
2021/04/29 00:52:29;;;;;;;1.07;0.60;;;18.50;99.90;;;;;;5099865;28;20206;-91
2021/04/29 00:55:00;;;;;;;2.10;0.70;;;18.60;99.90;;;;;;5101583;28;20207;-91
2021/04/29 00:57:31;;;;;;;0.83;0.70;;;18.50;99.90;;;;;;5097444;28;20639;-91
2021/04/29 01:00:02;;;;;;;2.03;0.67;;;18.60;99.90;;;;;;5097422;28;20207;-91
2021/04/29 01:02:35;;;;;;;6.23;1.50;;;18.60;99.90;;;;;;5097258;28;20681;-91
2021/04/29 01:05:12;;;;;;;1.87;0.80;;;18.60;99.90;;;;;;5113411;28;20246;-91
2021/04/29 01:07:47;;;;;;;1.37;0.90;;;18.60;99.90;;;;;;5099432;28;20255;-90
2021/04/29 01:10:23;;;;;;;2.27;1.70;;;18.50;99.90;;;;;;5117152;28;20234;-90
2021/04/29 01:13:00;;;;;;;2.13;1.50;;;18.50;99.90;;;;;;5117708;28;20255;-91
2021/04/29 01:15:31;;;;;;;1.60;1.00;;;18.40;99.90;;;;;;5116594;28;20202;-89
2021/04/29 01:18:03;;;;;;;1.07;0.60;;;18.40;99.90;;;;;;5117644;28;20232;-90
2021/04/29 01:20:42;;;;;;;2.20;1.60;;;18.20;99.90;;;;;;5117034;28;20627;-90
2021/04/29 01:23:22;;;;;;;3.17;1.10;;;18.10;99.90;;;;;;5117469;28;20223;-90
2021/04/29 01:25:58;;;;;;;3.03;1.53;;;17.90;99.90;;;;;;5116331;28;20254;-91
2021/04/29 01:28:31;;;;;;;1.10;1.00;;;17.80;99.90;;;;;;5116976;28;20677;-91
2021/04/29 01:31:02;;;;;;;1.93;1.20;;;17.50;99.90;;;;;;5126097;28;20222;-90
2021/04/29 01:33:35;;;;;;;2.27;1.50;;;17.40;99.90;;;;;;5137264;28;20268;-90
2021/04/29 01:36:09;;;;;;;3.10;1.40;;;17.30;99.90;;;;;;5118647;28;20198;-91
2021/04/29 01:38:41;;;;;;;2.23;1.17;;;17.10;99.90;;;;;;5104449;28;20203;-91
2021/04/29 01:41:12;;;;;;;2.97;1.10;;;17.10;99.90;;;;;;5096890;28;20621;-91
2021/04/29 01:43:46;;;;;;;1.70;1.10;;;17.10;99.90;;;;;;5096360;28;20233;-91
2021/04/29 01:46:17;;;;;;;2.93;1.30;;;17.00;99.90;;;;;;5096515;28;20226;-93
2021/04/29 01:48:48;;;;;;;2.73;1.40;;;17.00;99.90;;;;;;5097222;28;20258;-91
2021/04/29 01:51:19;;;;;;;2.83;1.33;;;17.00;99.90;;;;;;5097595;28;20702;-91
2021/04/29 01:53:50;;;;;;;2.43;1.03;;;16.90;99.90;;;;;;5079078;28;20256;-91
2021/04/29 01:56:21;;;;;;;1.83;1.00;;;16.80;99.90;;;;;;5094959;28;20683;-92
2021/04/29 01:58:53;;;;;;;1.83;0.90;;;16.60;99.90;;;;;;5096449;28;20207;-92
2021/04/29 02:01:25;;;;;;;1.07;0.80;;;16.60;99.90;;;;;;5096389;28;20213;-91
2021/04/29 02:03:56;;;;;;;3.13;1.10;;;16.50;99.90;;;;;;5096933;28;20207;-91
2021/04/29 02:06:27;;;;;;;2.60;1.10;;;16.50;99.90;;;;;;5078328;28;20283;-91
2021/04/29 02:08:58;;;;;;;1.60;1.10;;;16.50;99.90;;;;;;5103619;28;20203;-89
2021/04/29 02:11:31;;;;;;;1.63;0.97;;;16.40;99.90;;;;;;5108082;28;20276;-91
2021/04/29 02:14:06;;;;;;;1.97;0.90;;;16.30;99.90;;;;;;5097269;28;20234;-90
2021/04/29 02:16:40;;;;;;;2.23;1.70;;;16.30;99.90;;;;;;5096005;28;20258;-91
2021/04/29 02:19:12;;;;;;;1.00;0.90;;;16.20;99.90;;;;;;5096043;28;20248;-91
2021/04/29 02:21:44;;;;;;;4.33;1.40;;;16.20;99.90;;;;;;5095624;28;20210;-92
2021/04/29 02:24:16;;;;;;;3.73;1.30;;;16.20;99.90;;;;;;5095555;28;20230;-91
2021/04/29 02:26:50;;;;;;;2.20;1.50;;;16.20;99.90;;;;;;5094792;28;20206;-90
2021/04/29 02:29:22;;;;;;;2.30;1.30;;;16.10;99.90;;;;;;5095257;28;20207;-91
2021/04/29 02:31:54;;;;;;;2.90;1.33;;;15.90;99.90;;;;;;5078199;28;20235;-91
2021/04/29 02:34:24;;;;;;;1.93;1.03;;;15.90;99.90;;;;;;5094261;28;20615;-91
2021/04/29 02:36:55;;;;;;;2.93;1.20;;;15.80;99.90;;;;;;5097028;28;20264;-92
2021/04/29 02:39:27;;;;;;;3.47;1.10;;;15.80;99.90;;;;;;5094705;28;20206;-91
2021/04/29 02:41:57;;;;;;;2.37;1.30;;;15.70;99.90;;;;;;5094829;28;20654;-91
2021/04/29 02:44:31;;;;;;;2.80;1.17;;;15.70;99.90;;;;;;5097991;28;20221;-91
2021/04/29 02:47:02;;;;;;;3.57;1.20;;;15.70;99.90;;;;;;5094397;28;20226;-91
2021/04/29 02:49:34;;;;;;;4.17;1.33;;;15.60;99.90;;;;;;5095355;28;20592;-92
2021/04/29 02:52:05;;;;;;;1.63;1.20;;;15.50;99.90;;;;;;5098151;28;20230;-92
2021/04/29 02:54:37;;;;;;;2.40;1.40;;;15.40;99.90;;;;;;5097698;28;20207;-92
2021/04/29 02:57:08;;;;;;;2.80;1.70;;;15.30;99.90;;;;;;5097221;28;20260;-91
2021/04/29 02:59:43;;;;;;;3.13;2.17;;;15.20;99.90;;;;;;5094650;28;20302;-91
2021/04/29 03:02:13;;;;;;;4.27;2.20;;;15.20;99.90;;;;;;5094570;28;20416;-91
2021/04/29 03:04:44;;;;;;;4.47;1.83;;;15.10;99.90;;;;;;5094767;28;20199;-92
2021/04/29 03:07:14;;;;;;;3.23;1.60;;;15.10;99.90;;;;;;5094922;28;20297;-91
2021/04/29 03:09:43;;;;;;;2.63;1.90;;;15.00;99.90;;;;;;5095689;28;20206;-90
2021/04/29 03:12:14;;;;;;;4.30;1.33;;;15.00;99.90;;;;;;5095162;28;20211;-90
2021/04/29 03:14:46;;;;;;;2.10;1.20;;;15.00;99.90;;;;;;5094460;28;20272;-90
2021/04/29 03:17:17;;;;;;;2.00;1.10;;;14.90;99.90;;;;;;5095439;28;20237;-90
2021/04/29 03:19:48;;;;;;;3.03;1.60;;;14.90;99.90;;;;;;5095221;28;20210;-91
2021/04/29 03:22:18;;;;;;;2.63;1.40;;;15.00;99.90;;;;;;5077502;28;20236;-90
2021/04/29 03:24:50;;;;;;;3.20;1.40;;;14.90;99.90;;;;;;5093976;28;20215;-90
2021/04/29 03:27:24;;;;;;;2.90;1.67;;;14.80;99.90;;;;;;5077977;28;20217;-90
2021/04/29 03:29:57;;;;;;;3.77;1.60;;;14.70;99.90;;;;;;5094939;28;20211;-90
2021/04/29 03:32:28;;;;;;;2.43;1.20;;;14.60;99.90;;;;;;5077372;28;20215;-90
2021/04/29 03:34:59;;;;;;;2.30;1.40;;;14.60;99.90;;;;;;5109493;28;20218;-91
2021/04/29 03:37:30;;;;;;;5.70;1.50;;;14.60;99.90;;;;;;5118706;28;20206;-90
2021/04/29 03:40:00;;;;;;;2.70;1.40;;;14.50;99.90;;;;;;5099347;28;20199;-91
2021/04/29 03:42:31;;;;;;;2.53;1.37;;;14.50;99.90;;;;;;5115333;28;20206;-91
2021/04/29 03:45:03;;;;;;;2.90;1.40;;;14.40;99.90;;;;;;5119616;28;20198;-91
2021/04/29 03:47:34;;;;;;;3.77;1.97;;;14.30;99.90;;;;;;5120468;28;20222;-91
2021/04/29 03:50:06;;;;;;;3.57;1.50;;;14.30;99.90;;;;;;5122182;28;20209;-91
2021/04/29 03:52:37;;;;;;;3.70;2.00;;;14.30;99.90;;;;;;5119803;28;20244;-91
2021/04/29 03:55:08;;;;;;;4.07;1.90;;;14.20;99.90;;;;;;5121307;28;20241;-91
2021/04/29 03:57:39;;;;;;;3.10;1.70;;;14.20;99.90;;;;;;5125513;28;20202;-91
2021/04/29 04:00:14;;;;;;;3.60;1.47;;;14.20;99.90;;;;;;5132540;28;20190;-92
2021/04/29 04:02:44;;;;;;;4.07;1.90;;;14.30;99.90;;;;;;5115552;28;20212;-91
2021/04/29 04:05:18;;;;;;;5.00;2.30;;;14.30;99.90;;;;;;5122157;28;20202;-91
2021/04/29 04:07:49;;;;;;;8.03;2.57;;;14.20;99.90;;;;;;5097151;28;20206;-91
2021/04/29 04:10:19;;;;;;;3.50;2.10;;;14.20;99.90;;;;;;5099895;28;20675;-90
2021/04/29 04:12:50;;;;;;;3.10;1.70;;;14.10;99.90;;;;;;5099471;28;20324;-91
2021/04/29 04:15:22;;;;;;;4.17;2.00;;;14.10;99.90;;;;;;5097803;28;20261;-91
2021/04/29 04:17:53;;;;;;;3.70;1.80;;;14.00;99.90;;;;;;5109564;28;20241;-91
2021/04/29 04:20:23;;;;;;;2.67;2.10;;;13.90;99.90;;;;;;5117406;28;20222;-92
2021/04/29 04:22:54;;;;;;;2.77;1.63;;;13.90;99.90;;;;;;5117060;28;20210;-91
2021/04/29 04:25:25;;;;;;;4.63;1.63;;;13.90;99.90;;;;;;5116793;28;20660;-90
2021/04/29 04:27:56;;;;;;;3.27;1.80;;;13.80;99.90;;;;;;5117378;28;20297;-90
2021/04/29 04:30:28;;;;;;;3.97;1.80;;;13.80;99.90;;;;;;5116867;28;20237;-90
2021/04/29 04:32:58;;;;;;;2.50;1.60;;;13.80;99.90;;;;;;5117281;28;20241;-91
2021/04/29 04:35:30;;;;;;;5.63;2.10;;;13.70;99.90;;;;;;5116521;28;20210;-90
2021/04/29 04:38:00;;;;;;;3.77;2.10;;;13.70;99.90;;;;;;5117239;28;20263;-91
2021/04/29 04:40:31;;;;;;;3.23;1.70;;;13.70;99.90;;;;;;5116905;28;20256;-91
2021/04/29 04:43:02;;;;;;;2.47;1.77;;;13.60;99.90;;;;;;5118595;28;20225;-91
2021/04/29 04:45:33;;;;;;;3.07;2.00;;;13.60;99.90;;;;;;5117106;28;20221;-91
2021/04/29 04:48:03;;;;;;;2.27;1.60;;;13.60;99.90;;;;;;5117670;28;20251;-92
2021/04/29 04:50:33;;;;;;;2.37;1.80;;;13.70;99.90;;;;;;5128349;28;20226;-91
2021/04/29 04:53:03;;;;;;;3.00;1.73;;;13.80;99.90;;;;;;5128709;28;20235;-91
2021/04/29 04:55:34;;;;;;;3.27;1.60;;;13.70;99.90;;;;;;5116214;28;20224;-92
2021/04/29 04:58:21;;;;;;;2.30;1.93;;;13.60;99.90;;;;;;5119540;28;20570;-92
2021/04/29 05:00:54;;;;;;;4.83;1.90;;;13.50;99.90;;;;;;5119186;28;20206;-91
2021/04/29 05:03:29;;;;;;;3.83;1.90;;;13.50;99.90;;;;;;5122203;28;20240;-92
2021/04/29 05:06:01;;;;;;;3.50;1.80;;;13.40;99.90;;;;;;5098106;28;20209;-92
2021/04/29 05:08:32;;;;;;;4.20;2.27;;;13.30;99.90;;;;;;5120039;28;20207;-91
2021/04/29 05:11:03;;;;;;;3.37;2.30;;;13.30;99.90;;;;;;5116302;28;20651;-91
2021/04/29 05:13:34;;;;;;;4.43;2.43;;;13.30;99.90;;;;;;5116010;28;20655;-91
2021/04/29 05:16:05;;;;;;;3.20;2.03;;;13.30;99.90;;;;;;5115619;28;20559;-91
2021/04/29 05:18:36;;;;;;;3.67;1.97;;;13.30;99.90;;;;;;5116462;28;20217;-91
2021/04/29 05:21:07;;;;;;;3.17;2.00;;;13.30;99.90;;;;;;5115919;28;20263;-91
2021/04/29 05:23:39;;;;;;;4.23;2.00;;;13.30;99.90;;;;;;5116286;28;20206;-91
2021/04/29 05:26:10;;;;;;;4.40;2.30;;;13.20;99.90;;;;;;5114690;28;20270;-91
2021/04/29 05:28:40;;;;;;;3.80;2.17;;;13.20;99.90;;;;;;5115826;28;20245;-91
2021/04/29 05:31:18;;;;;;;3.60;2.30;;;13.20;99.90;;;;;;5115853;28;20229;-91
2021/04/29 05:33:49;;;;;;;4.00;2.10;;;13.10;99.90;;;;;;5116019;28;20226;-91
2021/04/29 05:36:20;;;;;;;2.60;1.80;;;13.00;99.90;;;;;;5097452;28;20594;-91
2021/04/29 05:38:51;;;;;;;2.20;1.90;;;13.00;99.90;;;;;;5115624;28;20234;-92
2021/04/29 05:41:22;;;;;;;2.90;1.80;;;13.00;99.90;;;;;;5115896;28;20202;-92
2021/04/29 05:43:53;;;;;;;3.37;1.87;;;12.90;99.90;;;;;;5098423;28;20258;-93
2021/04/29 05:46:25;;;;;;;3.23;1.80;;;12.90;99.90;;;;;;5115353;28;20319;-92
2021/04/29 05:48:56;;;;;;;2.10;1.87;;;12.80;99.90;;;;;;5116315;28;20230;-91
2021/04/29 05:51:27;;;;;;;2.87;1.63;;;12.80;99.90;;;;;;5115830;28;20230;-91
2021/04/29 05:53:57;;;;;;;2.93;1.80;;;12.80;99.90;;;;;;5115831;28;20202;-92
2021/04/29 05:56:28;;;;;;;3.87;2.00;;;12.80;99.90;;;;;;5115019;28;20206;-92
2021/04/29 05:58:58;;;;;;;4.13;1.90;;;12.90;99.90;;;;;;5115992;28;20202;-92
2021/04/29 06:01:29;;;;;;;2.23;1.77;;;12.90;99.90;;;;;;5115262;28;20202;-92
2021/04/29 06:04:03;;;;;;;2.90;1.70;;;12.80;99.90;;;;;;5116149;28;20250;-92
2021/04/29 06:06:33;;;;;;;4.80;1.87;;;12.70;99.90;;;;;;5119929;28;20263;-92
2021/04/29 06:09:03;;;;;;;3.20;1.97;;;12.60;99.90;;;;;;5116145;28;20199;-91
2021/04/29 06:11:33;;;;;;;4.20;1.87;;;12.60;99.90;;;;;;5115398;28;20321;-91
2021/04/29 06:14:04;;;;;;;3.20;1.90;;;12.50;99.90;;;;;;5118060;28;20214;-91
2021/04/29 06:16:36;;;;;;;2.83;1.50;;;12.50;99.90;;;;;;5115294;28;20673;-91
2021/04/29 06:19:07;;;;;;;5.13;1.70;;;12.50;99.90;;;;;;5112283;28;20198;-91
2021/04/29 06:21:38;;;;;;;2.77;1.80;;;12.50;99.90;;;;;;5130256;28;20256;-91
2021/04/29 06:24:09;;;;;;;2.93;2.03;;;12.50;99.90;;;;;;5126138;28;20202;-91
2021/04/29 06:26:41;;;;;;;3.30;1.77;;;12.50;99.90;;;;;;5097912;28;20220;-91
2021/04/29 06:29:12;;;;;;;5.90;1.70;;;12.50;99.90;;;;;;5115978;28;20263;-91
2021/04/29 06:31:45;;;;;;;3.63;2.10;;;12.50;99.90;;;;;;5115203;28;20295;-91
2021/04/29 06:34:16;;;;;;;3.10;1.47;;;12.40;99.90;;;;;;5114898;28;20650;-91
2021/04/29 06:36:46;;;;;;;2.40;1.60;;;12.40;99.90;;;;;;5116529;28;20308;-92
2021/04/29 06:39:19;;;;;;;4.03;2.10;;;12.40;99.90;;;;;;5115030;28;20289;-91
2021/04/29 06:41:49;;;;;;;2.37;1.70;;;12.40;99.90;;;;;;5115165;28;20233;-92
2021/04/29 06:44:20;;;;;;;2.80;1.70;;;12.40;99.90;;;;;;5115611;28;20266;-93
2021/04/29 06:46:53;;;;;;;2.27;1.57;;;12.30;99.90;;;;;;5114064;28;20245;-91
2021/04/29 06:49:23;;;;;;;3.00;2.03;;;12.30;99.90;;;;;;5115067;28;20217;-92
2021/04/29 06:51:54;;;;;;;2.77;1.80;;;12.30;99.90;;;;;;5117583;28;20234;-91
2021/04/29 06:54:25;;;;;;;2.40;2.03;;;12.30;99.90;;;;;;5118930;28;20210;-92
2021/04/29 06:56:58;;;;;;;2.63;1.83;;;12.20;99.90;;;;;;5114186;28;20243;-92
2021/04/29 06:59:29;;;;;;;3.27;1.80;;;12.20;99.90;;;;;;5117927;28;20251;-92
2021/04/29 07:02:02;;;;;;;2.50;1.93;;;12.20;99.90;;;;;;5116052;28;20207;-91
2021/04/29 07:04:52;;;;;;;3.07;1.70;;;12.20;99.90;;;;;;5115568;28;20210;-92
2021/04/29 07:07:23;;;;;;;3.23;2.07;;;12.20;99.90;;;;;;5114942;28;20658;-91
2021/04/29 07:09:54;;;;;;;2.50;1.93;;;12.10;99.90;;;;;;5102506;28;20198;-91
2021/04/29 07:12:25;;;;;;;2.90;1.90;;;12.10;99.90;;;;;;5115013;28;20302;-91
2021/04/29 07:14:55;;;;;;;4.67;2.07;;;12.10;99.90;;;;;;5113945;28;20213;-91
2021/04/29 07:17:28;;;;;;;2.60;1.93;;;12.00;99.90;;;;;;5114760;28;20329;-91
2021/04/29 07:20:01;;;;;;;2.83;1.87;;;12.10;99.90;;;;;;5119619;28;20661;-91
2021/04/29 07:22:32;;;;;;;4.20;2.20;;;12.00;99.90;;;;;;5118959;28;20272;-91
2021/04/29 07:25:02;;;;;;;2.90;1.73;;;11.90;99.90;;;;;;5117945;28;20543;-90
2021/04/29 07:27:32;;;;;;;3.60;1.80;;;11.90;99.90;;;;;;5118574;28;20233;-91
2021/04/29 07:30:02;;;;;;;2.50;1.90;;;11.80;99.90;;;;;;5118627;28;20209;-91
2021/04/29 07:32:37;;;;;;;2.70;1.67;;;11.70;99.90;;;;;;5103320;28;20227;-91
2021/04/29 07:35:09;;;;;;;3.00;2.00;;;11.70;99.90;;;;;;5097388;28;20207;-91
2021/04/29 07:37:39;;;;;;;5.53;2.30;;;11.70;99.90;;;;;;5098594;28;20199;-91
2021/04/29 07:40:11;;;;;;;4.27;2.07;;;11.70;99.90;;;;;;5098402;28;20215;-92
2021/04/29 07:42:42;;;;;;;2.70;2.10;;;11.80;99.90;;;;;;5117745;28;20210;-91
2021/04/29 07:45:13;;;;;;;3.97;2.10;;;11.80;99.90;;;;;;5117513;28;20548;-91
2021/04/29 07:47:46;;;;;;;4.03;2.17;;;11.70;99.90;;;;;;5118491;28;20207;-91
2021/04/29 07:50:17;;;;;;;5.43;2.00;;;11.70;99.90;;;;;;5118592;28;20242;-91
2021/04/29 07:52:48;;;;;;;4.00;1.93;;;11.60;99.90;;;;;;5101571;28;20274;-92
2021/04/29 07:55:19;;;;;;;4.53;2.33;;;11.60;99.90;;;;;;5119070;28;20648;-92
2021/04/29 07:57:50;;;;;;;3.93;1.80;;;11.60;99.90;;;;;;5109156;28;20217;-90
2021/04/29 08:00:21;;;;;;;3.23;2.30;;;11.50;99.90;;;;;;5133080;28;20198;-91
2021/04/29 08:02:53;;;;;;;3.80;2.63;;;11.50;99.90;;;;;;5121516;28;20206;-91
2021/04/29 08:05:24;;;;;;;3.27;2.10;;;11.50;99.90;;;;;;5121385;28;20186;-90
2021/04/29 08:07:54;;;;;;;5.67;2.10;;;11.50;99.90;;;;;;5118425;28;20209;-90
2021/04/29 08:10:25;;;;;;;3.77;2.20;;;11.50;99.90;;;;;;5118322;28;20202;-90
2021/04/29 08:12:56;;;;;;;2.40;2.13;;;11.70;99.90;;;;;;5120332;28;20645;-90
2021/04/29 08:15:27;;;;;;;3.67;2.10;;;11.60;99.90;;;;;;5116488;28;20206;-90
2021/04/29 08:17:59;;;;;;;5.03;2.20;;;11.60;99.90;;;;;;5120522;28;20229;-90
2021/04/29 08:20:30;;;;;;;5.03;2.07;;;11.50;99.90;;;;;;5119998;28;20220;-90
2021/04/29 08:23:01;;;;;;;2.80;1.80;;;11.50;99.90;;;;;;5117958;28;20234;-90
2021/04/29 08:25:32;;;;;;;3.30;2.00;;;11.50;99.90;;;;;;5119440;28;20627;-90
2021/04/29 08:28:03;;;;;;;2.80;2.33;;;11.50;99.90;;;;;;5119915;28;20663;-90
2021/04/29 08:30:34;;;;;;;4.63;2.37;;;11.40;99.90;;;;;;5116324;28;20231;-90
2021/04/29 08:33:06;;;;;;;3.73;2.17;;;11.40;99.90;;;;;;5117664;28;20291;-90
2021/04/29 08:35:37;;;;;;;3.23;2.17;;;11.40;99.90;;;;;;5101827;28;20206;-90
2021/04/29 08:38:08;;;;;;;2.90;2.40;;;11.30;99.90;;;;;;5119880;28;20292;-90
2021/04/29 08:40:39;;;;;;;3.03;2.30;;;11.40;99.90;;;;;;5131513;28;20207;-91
2021/04/29 08:43:09;;;;;;;4.37;2.23;;;11.30;99.90;;;;;;5114381;28;20232;-90
2021/04/29 08:45:44;;;;;;;4.30;2.60;;;11.30;99.90;;;;;;5126177;28;20612;-91
2021/04/29 08:48:23;;;;;;;3.03;2.17;;;11.20;99.90;;;;;;5117795;28;20210;-91
2021/04/29 08:50:54;;;;;;;5.50;2.30;;;11.20;99.90;;;;;;5118577;28;20205;-90
2021/04/29 08:53:24;;;;;;;2.53;2.30;;;11.20;99.90;;;;;;5117500;28;20267;-90
2021/04/29 08:55:54;;;;;;;2.67;2.10;;;11.10;99.90;;;;;;5116714;28;20639;-91
2021/04/29 08:58:25;;;;;;;2.73;2.37;;;11.10;99.90;;;;;;5103186;28;20221;-90
2021/04/29 09:01:03;;;;;;;2.90;2.00;;;11.00;99.90;;;;;;5096285;28;20911;-91
2021/04/29 09:03:37;;;;;;;2.73;2.10;;;11.00;99.90;;;;;;5096732;28;20883;-91
2021/04/29 09:06:08;;;;;;;6.07;2.30;;;10.90;99.90;;;;;;5098924;28;20341;-90
2021/04/29 09:08:40;;;;;;;2.87;2.33;;;10.90;99.90;;;;;;5094625;28;20230;-91
2021/04/29 09:11:13;;;;;;;3.00;2.13;;;10.90;99.90;;;;;;5096019;28;20740;-90
2021/04/29 09:13:55;;;;;;;3.23;2.20;;;10.90;99.90;;;;;;5096155;28;20316;-90
2021/04/29 09:16:37;;;;;;;4.03;2.43;;;10.80;99.90;;;;;;5095501;28;20257;-90
2021/04/29 09:19:19;;;;;;;3.93;2.40;;;10.80;99.90;;;;;;5098671;28;20220;-90
2021/04/29 09:21:50;;;;;;;5.13;2.20;;;10.80;99.90;;;;;;5116597;28;20595;-90
2021/04/29 09:24:31;;;;;;;2.80;2.20;;;10.80;99.90;;;;;;5117307;28;20202;-90
2021/04/29 09:27:15;;;;;;;2.33;2.13;;;10.70;99.90;;;;;;5116134;28;20246;-90
2021/04/29 09:29:57;;;;;;;2.97;2.53;;;10.70;99.90;;;;;;5099232;28;20204;-89
2021/04/29 09:32:29;;;;;;;3.93;2.10;;;10.70;99.90;;;;;;5114433;28;20234;-90
2021/04/29 09:35:03;;;;;;;5.80;2.20;;;10.60;99.90;;;;;;5117339;28;20320;-90
2021/04/29 09:37:35;;;;;;;2.17;1.93;;;10.70;99.90;;;;;;5118624;28;20719;-90
2021/04/29 09:40:08;;;;;;;4.17;2.40;;;10.70;99.90;;;;;;5117476;28;20204;-90
2021/04/29 09:42:40;;;;;;;3.97;2.63;;;10.70;99.90;;;;;;5119165;28;20214;-90
2021/04/29 09:45:19;;;;;;;6.30;2.73;;;10.70;99.90;;;;;;5116399;28;20206;-91
2021/04/29 09:48:01;;;;;;;3.73;2.37;;;10.70;99.90;;;;;;5115958;28;20206;-90
2021/04/29 09:50:38;;;;;;;2.87;2.17;;;10.60;99.90;;;;;;5118012;28;20209;-91
2021/04/29 09:53:11;;;;;;;3.57;2.37;;;10.60;99.90;;;;;;5116925;28;20233;-91
2021/04/29 09:55:44;;;;;;;4.03;2.13;;;10.60;99.90;;;;;;5116143;28;20206;-91
2021/04/29 09:58:16;;;;;;;5.90;2.40;;;10.60;99.90;;;;;;5117812;28;20244;-91
2021/04/29 10:00:48;;;;;;;4.50;2.17;;;10.50;99.90;;;;;;5116071;28;20210;-90
2021/04/29 10:03:20;;;;;;;4.03;2.30;;;10.50;99.90;;;;;;5115458;28;20686;-90
2021/04/29 10:05:54;;;;;;;3.50;2.27;;;10.50;99.90;;;;;;5115319;28;20198;-91
2021/04/29 10:08:26;;;;;;;3.97;2.40;;;10.40;99.90;;;;;;5116347;28;20241;-90
2021/04/29 10:10:59;;;;;;;3.53;2.40;;;10.40;99.90;;;;;;5115531;28;20230;-90
2021/04/29 10:13:32;;;;;;;4.87;2.53;;;10.40;99.90;;;;;;5117365;28;20198;-90
2021/04/29 10:16:03;;;;;;;9.20;2.10;;;10.30;99.90;;;;;;5115708;28;20213;-90
2021/04/29 10:18:34;;;;;;;4.67;2.40;;;10.20;99.90;;;;;;5100276;28;20263;-89
2021/04/29 10:21:08;;;;;;;3.67;2.10;;;10.10;99.90;;;;;;5106209;28;20306;-90
2021/04/29 10:23:41;;;;;;;3.13;2.43;;;10.10;99.90;;;;;;5112152;28;20255;-90
2021/04/29 10:26:12;;;;;;;2.20;2.00;;;10.10;99.90;;;;;;5115835;28;20271;-89
2021/04/29 10:28:43;;;;;;;2.97;2.20;;;10.00;99.90;;;;;;5102303;28;20202;-90
2021/04/29 10:31:18;;;;;;;3.37;2.50;;;10.00;99.90;;;;;;5115720;28;20255;-90
2021/04/29 10:33:56;;;;;;;2.80;1.90;;;9.90;99.90;;;;;;5099666;28;20205;-90
2021/04/29 10:36:39;;;;;;;4.60;2.50;;;9.90;99.90;;;;;;5116129;28;20209;-89
2021/04/29 10:39:12;;;;;;;5.37;2.30;;;9.90;99.90;;;;;;5117732;28;20186;-91
2021/04/29 10:41:42;;;;;;;3.07;2.20;;;9.90;99.90;;;;;;5117176;28;20696;-90
2021/04/29 10:44:14;;;;;;;5.00;2.40;;;9.90;99.90;;;;;;5115920;28;20233;-90
2021/04/29 10:46:47;;;;;;;3.97;2.40;;;9.90;99.90;;;;;;5098017;28;20202;-90
2021/04/29 10:49:19;;;;;;;3.90;2.10;;;9.90;99.90;;;;;;5115835;28;20210;-90
2021/04/29 10:51:53;;;;;;;2.30;2.10;;;9.90;99.90;;;;;;5097809;28;20581;-91
2021/04/29 10:54:24;;;;;;;7.37;2.00;;;9.90;99.90;;;;;;5117657;28;20194;-90
2021/04/29 10:57:04;;;;;;;3.30;2.17;;;9.90;99.90;;;;;;5126745;28;20205;-90
2021/04/29 10:59:42;;;;;;;3.83;2.17;;;9.90;99.90;;;;;;5133223;28;20206;-90
2021/04/29 11:02:27;;;;;;;3.33;2.10;;;9.80;99.90;;;;;;5131129;28;20198;-89
2021/04/29 11:04:57;;;;;;;3.77;2.50;;;9.80;99.90;;;;;;5122293;28;20210;-89
2021/04/29 11:07:31;;;;;;;5.43;2.50;;;9.70;99.90;;;;;;5101375;28;20236;-90
2021/04/29 11:10:05;;;;;;;6.27;2.33;;;9.80;99.90;;;;;;5119477;28;20259;-89
2021/04/29 11:12:50;;;;;;;3.83;2.27;;;9.80;99.90;;;;;;5116383;28;20226;-89
2021/04/29 11:15:23;;;;;;;6.27;2.67;;;9.70;99.90;;;;;;5114995;28;20572;-89
2021/04/29 11:18:06;;;;;;;3.20;2.07;;;9.70;99.90;;;;;;5100597;28;20214;-89
2021/04/29 11:20:45;;;;;;;5.07;2.50;;;9.70;99.90;;;;;;5118035;28;20216;-89
2021/04/29 11:23:18;;;;;;;4.30;2.50;;;9.70;99.90;;;;;;5117552;28;20688;-90
2021/04/29 11:25:49;;;;;;;3.43;2.03;;;9.70;99.90;;;;;;5116299;28;20227;-90
2021/04/29 11:28:28;;;;;;;4.40;2.20;;;9.80;99.90;;;;;;5117466;28;20349;-90
2021/04/29 11:30:59;;;;;;;3.33;2.20;;;9.80;99.90;;;;;;5124866;28;20271;-89
2021/04/29 11:33:34;;;;;;;2.93;2.40;;;9.80;99.90;;;;;;5123642;28;20520;-89
2021/04/29 11:36:16;;;;;;;5.70;2.30;;;9.90;99.90;;;;;;5108307;28;20255;-89
2021/04/29 11:38:56;;;;;;;2.83;2.47;;;9.80;99.90;;;;;;5123913;28;20210;-91
2021/04/29 11:41:29;;;;;;;3.70;2.30;;;9.90;99.90;;;;;;5106029;28;20229;-91
2021/04/29 11:44:01;;;;;;;4.97;2.47;;;9.90;99.90;;;;;;5105273;28;20226;-91
2021/04/29 11:46:32;;;;;;;2.57;2.23;;;9.80;99.90;;;;;;5122410;28;20202;-90
2021/04/29 11:49:04;;;;;;;3.63;2.57;;;9.70;99.90;;;;;;5105498;28;20206;-90
2021/04/29 11:51:37;;;;;;;3.47;2.40;;;9.70;99.90;;;;;;5122914;28;20237;-90
2021/04/29 11:54:10;;;;;;;4.37;2.50;;;9.60;99.90;;;;;;5105717;28;20206;-90
2021/04/29 11:56:42;;;;;;;7.07;2.23;;;9.60;99.90;;;;;;5122647;28;20210;-90
2021/04/29 11:59:13;;;;;;;2.83;2.20;;;9.60;99.90;;;;;;5124689;28;20190;-89
2021/04/29 12:01:55;;;;;;;3.33;2.13;;;9.60;99.90;;;;;;5104389;28;20206;-90
2021/04/29 12:04:27;;;;;;;2.67;2.33;;;9.60;99.90;;;;;;5122088;28;20206;-91
2021/04/29 12:07:02;;;;;;;3.60;2.37;;;9.60;99.90;;;;;;5123028;28;20201;-89
2021/04/29 12:09:35;;;;;;;3.20;2.40;;;9.50;99.90;;;;;;5102920;28;20534;-90
2021/04/29 12:12:18;;;;;;;4.13;2.40;;;9.50;99.90;;;;;;5117921;28;20232;-89
2021/04/29 12:14:53;;;;;;;4.60;2.63;;;9.60;99.90;;;;;;5120885;28;20213;-89
2021/04/29 12:17:25;;;;;;;3.23;2.33;;;9.50;99.90;;;;;;5120100;28;20210;-89
2021/04/29 12:19:56;;;;;;;3.50;2.50;;;9.50;99.90;;;;;;5117581;28;20198;-90
2021/04/29 12:22:27;;;;;;;4.37;2.60;;;9.40;99.90;;;;;;5119104;28;20214;-89
2021/04/29 12:25:00;;;;;;;4.10;2.40;;;9.50;99.90;;;;;;5117179;28;20217;-89
2021/04/29 12:27:31;;;;;;;4.70;2.40;;;9.30;99.90;;;;;;5102112;28;20211;-90
2021/04/29 12:30:07;;;;;;;2.60;2.40;;;9.40;99.90;;;;;;5118046;28;20241;-90
2021/04/29 12:32:43;;;;;;;2.67;1.87;;;9.40;99.90;;;;;;5121502;28;20271;-90
2021/04/29 12:35:16;;;;;;;2.87;2.20;;;9.40;99.90;;;;;;5117715;28;20197;-90
2021/04/29 12:37:52;;;;;;;4.23;2.63;;;9.40;99.90;;;;;;5119864;28;20564;-90
2021/04/29 12:40:31;;;;;;;3.30;2.40;;;9.30;99.90;;;;;;5117770;28;20255;-90
2021/04/29 12:43:21;;;;;;;4.13;2.27;;;9.30;99.90;;;;;;5117959;28;20198;-89
2021/04/29 12:45:54;;;;;;;3.07;2.53;;;9.30;99.90;;;;;;5116977;28;20192;-90
2021/04/29 12:48:30;;;;;;;3.47;2.57;;;9.30;99.90;;;;;;5117399;28;20206;-89
2021/04/29 12:51:07;;;;;;;2.90;2.60;;;9.30;99.90;;;;;;5117394;28;20205;-90
2021/04/29 12:53:39;;;;;;;3.50;2.70;;;9.30;99.90;;;;;;5117076;28;20267;-90
2021/04/29 12:56:11;;;;;;;2.93;2.53;;;9.40;99.90;;;;;;5116343;28;20202;-91
2021/04/29 12:58:42;;;;;;;3.93;2.40;;;9.40;99.90;;;;;;5117068;28;20225;-91
2021/04/29 13:01:21;;;;;;;3.27;2.97;;;9.40;99.90;;;;;;5116509;28;20202;-91
2021/04/29 13:03:52;;;;;;;3.90;2.93;;;9.40;99.90;;;;;;5117153;28;20206;-90
2021/04/29 13:06:23;;;;;;;4.50;2.90;;;9.40;99.90;;;;;;5098752;28;20202;-90
2021/04/29 13:08:56;;;;;;;4.43;3.23;;;9.40;99.90;;;;;;5116883;28;20235;-89
2021/04/29 13:11:35;;;;;;;4.47;2.90;;;9.40;99.90;;;;;;5098929;28;20808;-89
2021/04/29 13:14:08;;;;;;;4.87;2.97;;;9.30;99.90;;;;;;5099773;28;20202;-90
2021/04/29 13:16:40;;;;;;;3.50;3.20;;;9.40;99.90;;;;;;5116205;28;20221;-90